Time,TemperatureF,DewpointF,PressureIn,WindDirection,WindDirectionDegrees,WindSpeedMPH,WindSpeedGustMPH,Humidity,HourlyPrecipIn,Conditions,Clouds,dailyrainin,SoftwareType,DateUTC
2013-03-18 00:02:00,52.4,43.7,29.70,South,186,2.0,2.0,72,0.00,,---,0.00,VWS V14.01,2013-03-18 05:02:00,
2013-03-18 00:05:00,52.7,43.6,29.71,SSW,211,3.0,4.0,71,0.00,,---,0.00,VWS V14.01,2013-03-18 05:05:00,
2013-03-18 00:08:00,52.9,44.1,29.70,SSE,165,4.0,5.0,72,0.00,,---,0.00,VWS V14.01,2013-03-18 05:08:00,
2013-03-18 00:14:00,52.7,43.9,29.67,SSE,151,9.0,10.0,72,0.00,,---,0.00,VWS V14.01,2013-03-18 05:14:00,
2013-03-18 00:17:00,53.1,44.0,29.64,SE,134,9.0,14.0,71,0.00,,---,0.00,VWS V14.01,2013-03-18 05:17:00,
2013-03-18 00:23:00,55.7,44.5,29.64,SSE,155,8.0,14.0,66,0.00,,---,0.00,VWS V14.01,2013-03-18 05:23:00,
2013-03-18 00:26:00,57.6,45.1,29.63,SE,136,7.0,14.0,63,0.00,,---,0.00,VWS V14.01,2013-03-18 05:26:00,
2013-03-18 00:32:00,58.9,44.6,29.64,SE,135,7.0,9.0,59,0.00,,---,0.00,VWS V14.01,2013-03-18 05:32:00,
2013-03-18 00:35:00,58.8,44.5,29.64,SSE,162,5.0,9.0,59,0.00,,---,0.00,VWS V14.01,2013-03-18 05:35:00,
2013-03-18 00:38:00,58.5,44.2,29.64,SSE,156,3.0,9.0,59,0.00,,---,0.00,VWS V14.01,2013-03-18 05:38:00,
2013-03-18 00:45:00,58.2,44.0,29.64,SSE,157,0.0,9.0,59,0.00,,---,0.00,VWS V14.01,2013-03-18 05:45:00,
2013-03-18 00:48:00,58.1,43.9,29.64,SSE,157,0.0,9.0,59,0.00,,---,0.00,VWS V14.01,2013-03-18 05:48:00,
2013-03-18 00:51:00,58.1,43.9,29.64,SSE,156,0.0,9.0,59,0.00,,---,0.00,VWS V14.01,2013-03-18 05:51:00,
2013-03-18 00:54:00,58.2,44.0,29.63,SSE,156,0.0,9.0,59,0.00,,---,0.00,VWS V14.01,2013-03-18 05:54:00,
2013-03-18 00:57:00,58.3,44.0,29.64,SSE,156,0.0,9.0,59,0.00,,---,0.00,VWS V14.01,2013-03-18 05:57:00,
2013-03-18 01:01:00,58.3,44.0,29.63,SSE,156,0.0,9.0,59,0.00,,---,0.00,VWS V14.01,2013-03-18 06:01:00,
2013-03-18 01:03:00,58.3,43.6,29.64,SSE,158,0.0,3.0,58,0.00,,---,0.00,VWS V14.01,2013-03-18 06:03:00,
2013-03-18 01:09:00,58.6,44.3,29.65,South,174,4.0,7.0,59,0.00,,---,0.00,VWS V14.01,2013-03-18 06:09:00,
2013-03-18 01:12:00,58.9,44.2,29.65,South,182,1.0,7.0,58,0.00,,---,0.00,VWS V14.01,2013-03-18 06:12:00,
2013-03-18 01:18:00,59.2,44.5,29.64,South,174,3.0,7.0,58,0.00,,---,0.00,VWS V14.01,2013-03-18 06:18:00,
2013-03-18 01:24:00,59.8,44.5,29.64,SSE,150,5.0,7.0,57,0.00,,---,0.00,VWS V14.01,2013-03-18 06:24:00,
2013-03-18 01:27:00,59.9,44.7,29.64,South,169,3.0,7.0,57,0.00,,---,0.00,VWS V14.01,2013-03-18 06:27:00,
2013-03-18 01:30:00,60.1,44.8,29.65,South,171,3.0,7.0,57,0.00,,---,0.00,VWS V14.01,2013-03-18 06:30:00,
2013-03-18 01:33:00,60.2,44.9,29.65,South,180,2.0,6.0,57,0.00,,---,0.00,VWS V14.01,2013-03-18 06:33:00,
2013-03-18 01:39:00,60.6,45.3,29.64,SSE,167,3.0,8.0,57,0.00,,---,0.00,VWS V14.01,2013-03-18 06:39:00,
2013-03-18 01:42:00,60.7,45.4,29.64,SSE,155,6.0,8.0,57,0.00,,---,0.00,VWS V14.01,2013-03-18 06:42:00,
2013-03-18 01:45:00,60.8,45.5,29.64,SSE,164,3.0,8.0,57,0.00,,---,0.00,VWS V14.01,2013-03-18 06:45:00,
2013-03-18 01:48:00,60.8,45.5,29.64,SSE,157,5.0,8.0,57,0.00,,---,0.00,VWS V14.01,2013-03-18 06:48:00,
2013-03-18 01:54:00,60.4,45.1,29.64,South,175,3.0,8.0,57,0.00,,---,0.00,VWS V14.01,2013-03-18 06:54:00,
2013-03-18 01:57:00,60.2,44.9,29.64,SSE,163,2.0,8.0,57,0.00,,---,0.00,VWS V14.01,2013-03-18 06:57:00,
2013-03-18 02:03:00,59.6,45.3,29.64,SSE,162,0.0,3.0,59,0.00,,---,0.00,VWS V14.01,2013-03-18 07:03:00,
2013-03-18 02:06:00,59.4,45.1,29.64,SSE,162,0.0,3.0,59,0.00,,---,0.00,VWS V14.01,2013-03-18 07:06:00,
2013-03-18 02:13:00,58.9,45.1,29.64,SSE,162,1.0,3.0,60,0.00,,---,0.00,VWS V14.01,2013-03-18 07:13:00,
2013-03-18 02:16:00,58.5,45.1,29.64,SSE,162,1.0,3.0,61,0.00,,---,0.00,VWS V14.01,2013-03-18 07:16:00,
2013-03-18 02:19:00,58.1,44.7,29.64,SSE,162,0.0,3.0,61,0.00,,---,0.00,VWS V14.01,2013-03-18 07:19:00,
2013-03-18 02:22:00,57.9,44.5,29.64,SSE,162,0.0,3.0,61,0.00,,---,0.00,VWS V14.01,2013-03-18 07:22:00,
2013-03-18 02:25:00,57.6,44.7,29.63,SSE,162,0.0,3.0,62,0.00,,---,0.00,VWS V14.01,2013-03-18 07:25:00,
2013-03-18 02:28:00,57.2,44.3,29.64,SSE,162,0.0,3.0,62,0.00,,---,0.00,VWS V14.01,2013-03-18 07:28:00,
2013-03-18 02:31:00,56.8,44.8,29.63,South,173,6.0,7.0,64,0.00,,---,0.00,VWS V14.01,2013-03-18 07:31:00,
2013-03-18 02:37:00,58.7,46.6,29.63,SSE,165,5.0,9.0,64,0.00,,---,0.00,VWS V14.01,2013-03-18 07:37:00,
2013-03-18 02:40:00,59.4,46.8,29.63,South,175,5.0,9.0,63,0.00,,---,0.00,VWS V14.01,2013-03-18 07:40:00,
2013-03-18 02:49:00,59.9,46.4,29.63,South,180,4.0,9.0,61,0.00,,---,0.00,VWS V14.01,2013-03-18 07:49:00,
2013-03-18 02:52:00,59.9,46.4,29.63,SSW,192,4.0,9.0,61,0.00,,---,0.00,VWS V14.01,2013-03-18 07:52:00,
2013-03-18 02:55:00,59.8,46.3,29.63,SSW,200,5.0,9.0,61,0.00,,---,0.00,VWS V14.01,2013-03-18 07:55:00,
2013-03-18 02:58:00,59.7,46.2,29.63,SSW,205,3.0,9.0,61,0.00,,---,0.00,VWS V14.01,2013-03-18 07:58:00,
2013-03-18 03:04:00,59.3,46.3,29.62,SSW,198,2.0,5.0,62,0.00,,---,0.00,VWS V14.01,2013-03-18 08:04:00,
2013-03-18 03:07:00,59.0,46.0,29.62,SSW,195,3.0,5.0,62,0.00,,---,0.00,VWS V14.01,2013-03-18 08:07:00,
2013-03-18 03:10:00,58.7,46.2,29.62,South,189,4.0,7.0,63,0.00,,---,0.00,VWS V14.01,2013-03-18 08:10:00,
2013-03-18 03:13:00,58.6,46.1,29.62,South,190,4.0,7.0,63,0.00,,---,0.00,VWS V14.01,2013-03-18 08:13:00,
2013-03-18 03:19:00,58.6,46.1,29.62,SSW,196,5.0,7.0,63,0.00,,---,0.00,VWS V14.01,2013-03-18 08:19:00,
2013-03-18 03:22:00,58.5,46.0,29.62,South,188,4.0,7.0,63,0.00,,---,0.00,VWS V14.01,2013-03-18 08:22:00,
2013-03-18 03:25:00,58.4,45.9,29.62,South,188,3.0,7.0,63,0.00,,---,0.00,VWS V14.01,2013-03-18 08:25:00,
2013-03-18 03:31:00,58.2,46.1,29.62,SSW,195,4.0,7.0,64,0.00,,---,0.00,VWS V14.01,2013-03-18 08:31:00,
2013-03-18 03:37:00,58.5,46.0,29.62,SSW,193,7.0,7.0,63,0.00,,---,0.00,VWS V14.01,2013-03-18 08:37:00,
2013-03-18 03:40:00,59.1,46.5,29.62,SSW,193,6.0,10.0,63,0.00,,---,0.00,VWS V14.01,2013-03-18 08:40:00,
2013-03-18 03:43:00,59.9,46.4,29.62,South,186,12.0,12.0,61,0.00,,---,0.00,VWS V14.01,2013-03-18 08:43:00,
2013-03-18 03:46:00,60.7,46.8,29.62,South,180,6.0,12.0,60,0.00,,---,0.00,VWS V14.01,2013-03-18 08:46:00,
2013-03-18 03:49:00,61.2,47.2,29.62,SSW,210,8.0,12.0,60,0.00,,---,0.00,VWS V14.01,2013-03-18 08:49:00,
2013-03-18 03:56:00,61.6,47.2,29.61,South,174,7.0,12.0,59,0.00,,---,0.00,VWS V14.01,2013-03-18 08:56:00,
2013-03-18 03:59:00,61.7,47.2,29.61,SSW,196,7.0,12.0,59,0.00,,---,0.00,VWS V14.01,2013-03-18 08:59:00,
2013-03-18 04:02:00,61.6,47.2,29.61,SSW,194,7.0,7.0,59,0.00,,---,0.00,VWS V14.01,2013-03-18 09:02:00,
2013-03-18 04:08:00,61.8,46.9,29.61,SSW,196,6.0,10.0,58,0.00,,---,0.00,VWS V14.01,2013-03-18 09:08:00,
2013-03-18 04:14:00,61.9,47.0,29.60,SSW,192,7.0,10.0,58,0.00,,---,0.00,VWS V14.01,2013-03-18 09:14:00,
2013-03-18 04:17:00,62.1,46.7,29.60,South,190,8.0,10.0,57,0.00,,---,0.00,VWS V14.01,2013-03-18 09:17:00,
2013-03-18 04:20:00,62.5,46.6,29.60,South,188,7.0,11.0,56,0.00,,---,0.00,VWS V14.01,2013-03-18 09:20:00,
2013-03-18 04:23:00,62.7,47.3,29.60,SSW,196,6.0,12.0,57,0.00,,---,0.00,VWS V14.01,2013-03-18 09:23:00,
2013-03-18 04:29:00,63.2,48.7,29.60,South,173,5.0,13.0,59,0.00,,---,0.00,VWS V14.01,2013-03-18 09:29:00,
2013-03-18 04:35:00,63.6,49.9,29.60,SSW,192,7.0,13.0,61,0.00,,---,0.00,VWS V14.01,2013-03-18 09:35:00,
2013-03-18 04:38:00,63.8,50.1,29.60,South,182,10.0,14.0,61,0.00,,---,0.00,VWS V14.01,2013-03-18 09:38:00,
2013-03-18 04:44:00,64.1,50.4,29.60,SSW,211,12.0,15.0,61,0.00,,---,0.00,VWS V14.01,2013-03-18 09:44:00,
2013-03-18 04:47:00,64.3,50.6,29.60,SSW,199,12.0,17.0,61,0.00,,---,0.00,VWS V14.01,2013-03-18 09:47:00,
2013-03-18 04:53:00,64.6,50.9,29.60,SSW,202,7.0,17.0,61,0.00,,---,0.00,VWS V14.01,2013-03-18 09:53:00,
2013-03-18 04:56:00,64.6,50.9,29.60,SSW,203,10.0,17.0,61,0.00,,---,0.00,VWS V14.01,2013-03-18 09:56:00,
2013-03-18 04:59:00,64.4,50.7,29.60,SSW,211,8.0,17.0,61,0.00,,---,0.00,VWS V14.01,2013-03-18 09:59:00,
2013-03-18 05:02:00,64.3,50.6,29.60,SSW,204,9.0,11.0,61,0.00,,---,0.00,VWS V14.01,2013-03-18 10:02:00,
2013-03-18 05:05:00,64.1,50.4,29.60,SSW,213,10.0,12.0,61,0.00,,---,0.00,VWS V14.01,2013-03-18 10:05:00,
2013-03-18 05:08:00,64.0,50.3,29.61,SW,217,10.0,12.0,61,0.00,,---,0.00,VWS V14.01,2013-03-18 10:08:00,
2013-03-18 05:11:00,63.9,50.2,29.61,SSW,208,9.0,13.0,61,0.00,,---,0.00,VWS V14.01,2013-03-18 10:11:00,
2013-03-18 05:14:00,63.7,50.0,29.61,SW,219,9.0,13.0,61,0.00,,---,0.00,VWS V14.01,2013-03-18 10:14:00,
2013-03-18 05:17:00,63.5,50.3,29.61,SSW,208,6.0,14.0,62,0.00,,---,0.00,VWS V14.01,2013-03-18 10:17:00,
2013-03-18 05:20:00,63.2,50.0,29.61,SSW,198,7.0,14.0,62,0.00,,---,0.00,VWS V14.01,2013-03-18 10:20:00,
2013-03-18 05:26:00,63.0,50.2,29.61,SSW,213,7.0,14.0,63,0.00,,---,0.00,VWS V14.01,2013-03-18 10:26:00,
2013-03-18 05:29:00,62.9,50.1,29.61,SSW,209,4.0,14.0,63,0.00,,---,0.00,VWS V14.01,2013-03-18 10:29:00,
2013-03-18 05:32:00,62.7,50.4,29.62,SW,219,6.0,7.0,64,0.00,,---,0.00,VWS V14.01,2013-03-18 10:32:00,
2013-03-18 05:35:00,62.7,50.4,29.62,SSW,197,7.0,10.0,64,0.00,,---,0.00,VWS V14.01,2013-03-18 10:35:00,
2013-03-18 05:38:00,62.6,50.3,29.62,SSW,199,5.0,10.0,64,0.00,,---,0.00,VWS V14.01,2013-03-18 10:38:00,
2013-03-18 05:42:00,62.4,50.5,29.62,SW,222,5.0,10.0,65,0.00,,---,0.00,VWS V14.01,2013-03-18 10:42:00,
2013-03-18 05:48:00,62.4,50.5,29.62,SW,219,6.0,11.0,65,0.00,,---,0.00,VWS V14.01,2013-03-18 10:48:00,
2013-03-18 05:51:00,62.2,50.3,29.62,SW,227,5.0,11.0,65,0.00,,---,0.00,VWS V14.01,2013-03-18 10:51:00,
2013-03-18 05:54:00,62.0,50.5,29.63,SW,236,5.0,11.0,66,0.00,,---,0.00,VWS V14.01,2013-03-18 10:54:00,
2013-03-18 06:00:00,61.8,50.3,29.63,SW,233,4.0,11.0,66,0.00,,---,0.00,VWS V14.01,2013-03-18 11:00:00,
2013-03-18 06:03:00,61.7,50.2,29.64,SW,236,6.0,7.0,66,0.00,,---,0.00,VWS V14.01,2013-03-18 11:03:00,
2013-03-18 06:06:00,61.6,50.1,29.63,WSW,237,7.0,9.0,66,0.00,,---,0.00,VWS V14.01,2013-03-18 11:06:00,
2013-03-18 06:12:00,61.4,50.0,29.63,SW,231,6.0,12.0,66,0.00,,---,0.00,VWS V14.01,2013-03-18 11:12:00,
2013-03-18 06:15:00,61.1,49.3,29.64,SW,223,9.0,12.0,65,0.00,,---,0.00,VWS V14.01,2013-03-18 11:15:00,
2013-03-18 06:18:00,61.1,49.3,29.64,SW,228,6.0,12.0,65,0.00,,---,0.00,VWS V14.01,2013-03-18 11:18:00,
2013-03-18 06:21:00,61.0,49.2,29.64,SW,232,6.0,12.0,65,0.00,,---,0.00,VWS V14.01,2013-03-18 11:21:00,
2013-03-18 06:24:00,60.8,49.0,29.64,SW,226,5.0,12.0,65,0.00,,---,0.00,VWS V14.01,2013-03-18 11:24:00,
2013-03-18 06:27:00,60.7,48.9,29.65,SW,222,6.0,12.0,65,0.00,,---,0.00,VWS V14.01,2013-03-18 11:27:00,
2013-03-18 06:30:00,60.6,48.8,29.65,SW,232,5.0,12.0,65,0.00,,---,0.00,VWS V14.01,2013-03-18 11:30:00,
2013-03-18 06:33:00,60.3,48.5,29.66,SW,231,7.0,7.0,65,0.00,,---,0.00,VWS V14.01,2013-03-18 11:33:00,
2013-03-18 06:39:00,60.1,48.3,29.66,SW,236,9.0,10.0,65,0.00,,---,0.00,VWS V14.01,2013-03-18 11:39:00,
2013-03-18 06:42:00,60.4,48.2,29.67,WSW,240,6.0,13.0,64,0.00,,---,0.00,VWS V14.01,2013-03-18 11:42:00,
2013-03-18 06:45:00,60.7,47.6,29.67,WSW,257,7.0,13.0,62,0.00,,---,0.00,VWS V14.01,2013-03-18 11:45:00,
2013-03-18 06:48:00,61.4,47.0,29.67,WSW,252,8.0,13.0,59,0.00,,---,0.00,VWS V14.01,2013-03-18 11:48:00,
2013-03-18 06:51:00,62.2,45.8,29.68,WSW,244,9.0,13.0,55,0.00,,---,0.00,VWS V14.01,2013-03-18 11:51:00,
2013-03-18 06:54:00,62.5,45.7,29.68,WSW,252,10.0,13.0,54,0.00,,---,0.00,VWS V14.01,2013-03-18 11:54:00,
2013-03-18 06:57:00,62.7,45.3,29.68,West,261,8.0,14.0,53,0.00,,---,0.00,VWS V14.01,2013-03-18 11:57:00,
2013-03-18 07:00:00,62.7,45.3,29.68,West,266,6.0,14.0,53,0.00,,---,0.00,VWS V14.01,2013-03-18 12:00:00,
2013-03-18 07:03:00,62.5,44.7,29.68,WSW,244,7.0,14.0,52,0.00,,---,0.00,VWS V14.01,2013-03-18 12:03:00,
2013-03-18 07:09:00,62.2,44.9,29.69,West,266,8.0,14.0,53,0.00,,---,0.00,VWS V14.01,2013-03-18 12:09:00,
2013-03-18 07:13:00,61.8,45.0,29.69,WSW,254,7.0,14.0,54,0.00,,---,0.00,VWS V14.01,2013-03-18 12:13:00,
2013-03-18 07:16:00,61.6,45.3,29.70,West,279,5.0,14.0,55,0.00,,---,0.00,VWS V14.01,2013-03-18 12:16:00,
2013-03-18 07:22:00,61.2,44.9,29.71,West,265,6.0,14.0,55,0.00,,---,0.00,VWS V14.01,2013-03-18 12:22:00,
2013-03-18 07:25:00,61.0,44.2,29.71,West,261,6.0,14.0,54,0.00,,---,0.00,VWS V14.01,2013-03-18 12:25:00,
2013-03-18 07:28:00,61.0,44.2,29.72,WNW,294,6.0,14.0,54,0.00,,---,0.00,VWS V14.01,2013-03-18 12:28:00,
2013-03-18 07:34:00,61.2,43.0,29.73,WNW,294,7.0,10.0,51,0.00,,---,0.00,VWS V14.01,2013-03-18 12:34:00,
2013-03-18 07:37:00,61.3,43.0,29.73,NW,309,4.0,12.0,51,0.00,,---,0.00,VWS V14.01,2013-03-18 12:37:00,
2013-03-18 07:40:00,61.3,42.0,29.74,NNW,328,10.0,12.0,49,0.00,,---,0.00,VWS V14.01,2013-03-18 12:40:00,
2013-03-18 07:43:00,61.3,41.5,29.74,WNW,284,12.0,14.0,48,0.00,,---,0.00,VWS V14.01,2013-03-18 12:43:00,
2013-03-18 07:46:00,61.3,40.9,29.74,NW,309,8.0,15.0,47,0.00,,---,0.00,VWS V14.01,2013-03-18 12:46:00,
2013-03-18 07:52:00,60.9,40.0,29.75,NW,325,8.0,15.0,46,0.00,,---,0.00,VWS V14.01,2013-03-18 12:52:00,
2013-03-18 07:55:00,60.7,39.8,29.75,NW,315,7.0,15.0,46,0.00,,---,0.00,VWS V14.01,2013-03-18 12:55:00,
2013-03-18 07:58:00,60.4,39.5,29.76,NW,319,10.0,15.0,46,0.00,,---,0.00,VWS V14.01,2013-03-18 12:58:00,
2013-03-18 08:01:00,60.2,39.9,29.75,NNW,342,9.0,9.0,47,0.00,,---,0.00,VWS V14.01,2013-03-18 13:01:00,
2013-03-18 08:04:00,59.9,40.2,29.76,NW,317,7.0,10.0,48,0.00,,---,0.00,VWS V14.01,2013-03-18 13:04:00,
2013-03-18 08:10:00,59.5,39.8,29.76,NW,323,10.0,18.0,48,0.00,,---,0.00,VWS V14.01,2013-03-18 13:10:00,
2013-03-18 08:19:00,59.1,40.5,29.77,NW,315,8.0,22.0,50,0.00,,---,0.00,VWS V14.01,2013-03-18 13:19:00,
2013-03-18 08:25:00,58.7,40.6,29.77,NNW,328,8.0,22.0,51,0.00,,---,0.00,VWS V14.01,2013-03-18 13:25:00,
2013-03-18 08:28:00,58.6,41.0,29.77,NW,310,17.0,22.0,52,0.00,,---,0.00,VWS V14.01,2013-03-18 13:28:00,
2013-03-18 08:31:00,58.4,41.3,29.78,NNW,330,11.0,11.0,53,0.00,,---,0.00,VWS V14.01,2013-03-18 13:31:00,
2013-03-18 08:38:00,58.3,42.2,29.79,NNW,338,12.0,20.0,55,0.00,,---,0.00,VWS V14.01,2013-03-18 13:38:00,
2013-03-18 08:41:00,58.1,42.5,29.79,North,351,12.0,20.0,56,0.00,,---,0.00,VWS V14.01,2013-03-18 13:41:00,
2013-03-18 08:44:00,57.9,42.8,29.79,NNW,330,9.0,20.0,57,0.00,,---,0.00,VWS V14.01,2013-03-18 13:44:00,
2013-03-18 08:47:00,57.8,42.7,29.80,NNW,344,16.0,20.0,57,0.00,,---,0.00,VWS V14.01,2013-03-18 13:47:00,
2013-03-18 08:50:00,57.6,43.0,29.80,NNW,328,10.0,20.0,58,0.00,,---,0.00,VWS V14.01,2013-03-18 13:50:00,
2013-03-18 08:53:00,57.5,43.3,29.80,NNW,340,8.0,20.0,59,0.00,,---,0.00,VWS V14.01,2013-03-18 13:53:00,
2013-03-18 08:56:00,57.4,43.2,29.80,North,355,10.0,20.0,59,0.00,,---,0.00,VWS V14.01,2013-03-18 13:56:00,
2013-03-18 08:59:00,57.2,43.5,29.81,NNW,327,10.0,20.0,60,0.00,,---,0.00,VWS V14.01,2013-03-18 13:59:00,
2013-03-18 09:02:00,56.6,43.3,29.81,North,355,11.0,13.0,61,0.00,,---,0.00,VWS V14.01,2013-03-18 14:02:00,
2013-03-18 09:05:00,55.9,43.1,29.82,NNW,331,9.0,17.0,62,0.00,,---,0.00,VWS V14.01,2013-03-18 14:05:00,
2013-03-18 09:08:00,55.5,43.1,29.82,North,355,6.0,17.0,63,0.00,,---,0.00,VWS V14.01,2013-03-18 14:08:00,
2013-03-18 09:14:00,54.9,43.0,29.83,NNW,348,8.0,18.0,64,0.00,,---,0.00,VWS V14.01,2013-03-18 14:14:00,
2013-03-18 09:17:00,54.4,42.9,29.83,North,355,10.0,18.0,65,0.00,,---,0.00,VWS V14.01,2013-03-18 14:17:00,
2013-03-18 09:20:00,54.1,43.0,29.84,NW,311,11.0,18.0,66,0.00,,---,0.00,VWS V14.01,2013-03-18 14:20:00,
2013-03-18 09:23:00,53.8,42.7,29.84,North,360,7.0,18.0,66,0.00,,---,0.00,VWS V14.01,2013-03-18 14:23:00,
2013-03-18 09:29:00,53.3,43.0,29.84,North,350,8.0,18.0,68,0.00,,---,0.00,VWS V14.01,2013-03-18 14:29:00,
2013-03-18 09:32:00,53.0,42.7,29.85,NNE,13,11.0,14.0,68,0.00,,---,0.00,VWS V14.01,2013-03-18 14:32:00,
2013-03-18 09:38:00,52.5,42.6,29.86,NNW,338,12.0,17.0,69,0.00,,---,0.00,VWS V14.01,2013-03-18 14:38:00,
2013-03-18 09:41:00,52.2,42.3,29.86,North,11,14.0,17.0,69,0.00,,---,0.00,VWS V14.01,2013-03-18 14:41:00,
2013-03-18 09:44:00,51.9,42.4,29.86,NNE,29,11.0,17.0,70,0.00,,---,0.00,VWS V14.01,2013-03-18 14:44:00,
2013-03-18 09:47:00,51.7,42.2,29.86,NNE,13,9.0,17.0,70,0.00,,---,0.00,VWS V14.01,2013-03-18 14:47:00,
2013-03-18 09:50:00,51.6,42.2,29.87,NNW,345,10.0,17.0,70,0.00,,---,0.00,VWS V14.01,2013-03-18 14:50:00,
2013-03-18 09:56:00,51.7,42.2,29.87,NNE,20,10.0,17.0,70,0.00,,---,0.00,VWS V14.01,2013-03-18 14:56:00,
2013-03-18 09:59:00,51.7,42.6,29.87,North,11,9.0,17.0,71,0.00,,---,0.00,VWS V14.01,2013-03-18 14:59:00,
2013-03-18 10:02:00,51.8,42.7,29.87,North,360,9.0,13.0,71,0.00,,---,0.00,VWS V14.01,2013-03-18 15:02:00,
2013-03-18 10:08:00,51.8,42.7,29.87,North,5,11.0,16.0,71,0.00,,---,0.00,VWS V14.01,2013-03-18 15:08:00,
2013-03-18 10:12:00,51.8,42.7,29.87,North,5,11.0,16.0,71,0.00,,---,0.00,VWS V14.01,2013-03-18 15:12:00,
2013-03-18 10:15:00,52.1,42.6,29.87,NNE,20,9.0,16.0,70,0.00,,---,0.00,VWS V14.01,2013-03-18 15:15:00,
2013-03-18 10:18:00,52.4,42.9,29.87,NNE,33,8.0,16.0,70,0.00,,---,0.00,VWS V14.01,2013-03-18 15:18:00,
2013-03-18 10:21:00,52.6,42.7,29.87,NW,326,11.0,16.0,69,0.00,,---,0.00,VWS V14.01,2013-03-18 15:21:00,
2013-03-18 10:27:00,53.6,43.3,29.88,NNW,346,8.0,16.0,68,0.00,,---,0.00,VWS V14.01,2013-03-18 15:27:00,
2013-03-18 10:30:00,53.8,43.1,29.88,NNW,346,7.0,16.0,67,0.00,,---,0.00,VWS V14.01,2013-03-18 15:30:00,
2013-03-18 10:33:00,53.8,43.1,29.88,North,5,9.0,16.0,67,0.00,,---,0.00,VWS V14.01,2013-03-18 15:33:00,
2013-03-18 10:39:00,54.2,43.5,29.89,NNW,327,9.0,16.0,67,0.00,,---,0.00,VWS V14.01,2013-03-18 15:39:00,
2013-03-18 10:45:00,54.7,43.2,29.89,NNW,334,6.0,17.0,65,0.00,,---,0.00,VWS V14.01,2013-03-18 15:45:00,
2013-03-18 10:48:00,54.9,43.8,29.89,NW,326,11.0,17.0,66,0.00,,---,0.00,VWS V14.01,2013-03-18 15:48:00,
2013-03-18 10:54:00,55.3,43.8,29.89,North,351,11.0,17.0,65,0.00,,---,0.00,VWS V14.01,2013-03-18 15:54:00,
2013-03-18 10:57:00,55.5,43.5,29.89,NNW,327,12.0,17.0,64,0.00,,---,0.00,VWS V14.01,2013-03-18 15:57:00,
2013-03-18 11:00:00,55.8,43.8,29.89,North,5,8.0,17.0,64,0.00,,---,0.00,VWS V14.01,2013-03-18 16:00:00,
2013-03-18 11:06:00,56.3,43.9,29.89,North,360,8.0,14.0,63,0.00,,---,0.00,VWS V14.01,2013-03-18 16:06:00,
2013-03-18 11:09:00,56.8,43.9,29.89,North,360,6.0,14.0,62,0.00,,---,0.00,VWS V14.01,2013-03-18 16:09:00,
2013-03-18 11:15:00,57.1,43.8,29.90,North,360,9.0,16.0,61,0.00,,---,0.00,VWS V14.01,2013-03-18 16:15:00,
2013-03-18 11:18:00,57.3,44.4,29.90,NNW,329,7.0,16.0,62,0.00,,---,0.00,VWS V14.01,2013-03-18 16:18:00,
2013-03-18 11:24:00,57.5,44.2,29.90,North,11,7.0,16.0,61,0.00,,---,0.00,VWS V14.01,2013-03-18 16:24:00,
2013-03-18 11:30:00,58.3,44.0,29.90,North,360,8.0,16.0,59,0.00,,---,0.00,VWS V14.01,2013-03-18 16:30:00,
2013-03-18 11:33:00,58.7,44.4,29.90,NE,47,6.0,12.0,59,0.00,,---,0.00,VWS V14.01,2013-03-18 16:33:00,
2013-03-18 11:36:00,59.0,44.7,29.90,North,355,14.0,14.0,59,0.00,,---,0.00,VWS V14.01,2013-03-18 16:36:00,
2013-03-18 11:43:00,59.3,44.5,29.90,North,11,11.0,16.0,58,0.00,,---,0.00,VWS V14.01,2013-03-18 16:43:00,
2013-03-18 11:46:00,59.3,44.5,29.90,North,11,8.0,16.0,58,0.00,,---,0.00,VWS V14.01,2013-03-18 16:46:00,
2013-03-18 11:49:00,59.8,44.5,29.90,North,5,6.0,16.0,57,0.00,,---,0.00,VWS V14.01,2013-03-18 16:49:00,
2013-03-18 11:55:00,60.4,45.1,29.90,NNE,13,5.0,16.0,57,0.00,,---,0.00,VWS V14.01,2013-03-18 16:55:00,
2013-03-18 12:01:00,60.4,44.2,29.90,NNE,17,11.0,16.0,55,0.00,,---,0.00,VWS V14.01,2013-03-18 17:01:00,
2013-03-18 12:04:00,60.1,44.4,29.90,NNW,336,8.0,15.0,56,0.00,,---,0.00,VWS V14.01,2013-03-18 17:04:00,
2013-03-18 12:10:00,60.6,44.4,29.90,North,5,11.0,15.0,55,0.00,,---,0.00,VWS V14.01,2013-03-18 17:10:00,
2013-03-18 12:13:00,60.9,44.6,29.90,NNW,344,9.0,16.0,55,0.00,,---,0.00,VWS V14.01,2013-03-18 17:13:00,
2013-03-18 12:22:00,60.2,44.9,29.90,NNE,13,7.0,16.0,57,0.00,,---,0.00,VWS V14.01,2013-03-18 17:22:00,
2013-03-18 12:28:00,59.9,44.7,29.90,NNE,16,5.0,16.0,57,0.00,,---,0.00,VWS V14.01,2013-03-18 17:28:00,
2013-03-18 12:31:00,60.1,46.2,29.90,NW,325,2.0,16.0,60,0.00,,---,0.00,VWS V14.01,2013-03-18 17:31:00,
2013-03-18 12:37:00,60.7,46.3,29.89,NNW,346,9.0,14.0,59,0.00,,---,0.00,VWS V14.01,2013-03-18 17:37:00,
2013-03-18 12:40:00,60.8,45.5,29.89,North,5,8.0,14.0,57,0.00,,---,0.00,VWS V14.01,2013-03-18 17:40:00,
2013-03-18 12:43:00,60.9,46.0,29.90,NE,48,7.0,14.0,58,0.00,,---,0.00,VWS V14.01,2013-03-18 17:43:00,
2013-03-18 12:46:00,61.1,44.3,29.90,North,360,9.0,14.0,54,0.00,,---,0.00,VWS V14.01,2013-03-18 17:46:00,
2013-03-18 12:52:00,60.6,44.8,29.90,North,355,6.0,14.0,56,0.00,,---,0.00,VWS V14.01,2013-03-18 17:52:00,
2013-03-18 12:55:00,60.8,46.0,29.90,NW,323,7.0,14.0,58,0.00,,---,0.00,VWS V14.01,2013-03-18 17:55:00,
2013-03-18 12:58:00,61.2,45.4,29.90,NNE,13,9.0,16.0,56,0.00,,---,0.00,VWS V14.01,2013-03-18 17:58:00,
2013-03-18 13:01:00,61.2,44.4,29.90,NNW,338,6.0,10.0,54,0.00,,---,0.00,VWS V14.01,2013-03-18 18:01:00,
2013-03-18 13:04:00,61.7,46.8,29.90,NNW,340,8.0,12.0,58,0.00,,---,0.00,VWS V14.01,2013-03-18 18:04:00,
2013-03-18 13:10:00,61.7,45.9,29.90,NNW,331,6.0,15.0,56,0.00,,---,0.00,VWS V14.01,2013-03-18 18:10:00,
2013-03-18 13:14:00,62.3,46.9,29.90,NNE,16,9.0,15.0,57,0.00,,---,0.00,VWS V14.01,2013-03-18 18:14:00,
2013-03-18 13:17:00,62.8,45.4,29.90,North,9,9.0,15.0,53,0.00,,---,0.00,VWS V14.01,2013-03-18 18:17:00,
2013-03-18 13:20:00,62.6,45.2,29.90,NNE,20,10.0,15.0,53,0.00,,---,0.00,VWS V14.01,2013-03-18 18:20:00,
2013-03-18 13:23:00,62.3,45.0,29.90,NNE,18,7.0,15.0,53,0.00,,---,0.00,VWS V14.01,2013-03-18 18:23:00,
2013-03-18 13:26:00,62.7,45.8,29.90,North,355,7.0,15.0,54,0.00,,---,0.00,VWS V14.01,2013-03-18 18:26:00,
2013-03-18 13:29:00,62.7,45.3,29.90,NNW,346,7.0,15.0,53,0.00,,---,0.00,VWS V14.01,2013-03-18 18:29:00,
2013-03-18 13:31:00,62.9,45.5,29.90,NNW,333,8.0,15.0,53,0.00,,---,0.00,VWS V14.01,2013-03-18 18:31:00,
2013-03-18 13:38:00,62.9,45.0,29.89,North,351,6.0,13.0,52,0.00,,---,0.00,VWS V14.01,2013-03-18 18:38:00,
2013-03-18 13:44:00,62.7,46.8,29.90,North,5,6.0,13.0,56,0.00,,---,0.00,VWS V14.01,2013-03-18 18:44:00,
2013-03-18 13:47:00,63.0,44.6,29.90,North,360,1.0,13.0,51,0.00,,---,0.00,VWS V14.01,2013-03-18 18:47:00,
2013-03-18 13:50:00,63.5,45.6,29.90,NNE,27,4.0,13.0,52,0.00,,---,0.00,VWS V14.01,2013-03-18 18:50:00,
2013-03-18 13:53:00,63.9,46.0,29.90,North,5,7.0,13.0,52,0.00,,---,0.00,VWS V14.01,2013-03-18 18:53:00,
2013-03-18 13:59:00,64.3,45.3,29.89,North,11,8.0,14.0,50,0.00,,---,0.00,VWS V14.01,2013-03-18 18:59:00,
2013-03-18 14:02:00,64.6,45.6,29.89,NNW,327,9.0,13.0,50,0.00,,---,0.00,VWS V14.01,2013-03-18 19:02:00,
2013-03-18 14:05:00,64.9,46.4,29.89,NW,318,8.0,13.0,51,0.00,,---,0.00,VWS V14.01,2013-03-18 19:05:00,
2013-03-18 14:08:00,65.0,46.5,29.89,NNW,344,8.0,13.0,51,0.00,,---,0.00,VWS V14.01,2013-03-18 19:08:00,
2013-03-18 14:11:00,65.3,45.1,29.89,NW,307,8.0,13.0,48,0.00,,---,0.00,VWS V14.01,2013-03-18 19:11:00,
2013-03-18 14:14:00,65.4,45.2,29.89,NNW,337,3.0,13.0,48,0.00,,---,0.00,VWS V14.01,2013-03-18 19:14:00,
2013-03-18 14:17:00,65.3,45.1,29.89,NW,311,8.0,13.0,48,0.00,,---,0.00,VWS V14.01,2013-03-18 19:17:00,
2013-03-18 14:23:00,65.3,44.6,29.89,NW,316,7.0,15.0,47,0.00,,---,0.00,VWS V14.01,2013-03-18 19:23:00,
2013-03-18 14:26:00,65.6,44.3,29.89,NNE,15,6.0,15.0,46,0.00,,---,0.00,VWS V14.01,2013-03-18 19:26:00,
2013-03-18 14:29:00,65.6,44.8,29.89,North,355,6.0,15.0,47,0.00,,---,0.00,VWS V14.01,2013-03-18 19:29:00,
2013-03-18 14:31:00,65.8,44.5,29.89,North,5,1.0,15.0,46,0.00,,---,0.00,VWS V14.01,2013-03-18 19:31:00,
2013-03-18 14:35:00,66.3,44.9,29.89,NW,325,4.0,13.0,46,0.00,,---,0.00,VWS V14.01,2013-03-18 19:35:00,
2013-03-18 14:38:00,66.2,44.8,29.89,NW,315,1.0,13.0,46,0.00,,---,0.00,VWS V14.01,2013-03-18 19:38:00,
2013-03-18 14:44:00,66.4,45.6,29.89,NW,315,8.0,13.0,47,0.00,,---,0.00,VWS V14.01,2013-03-18 19:44:00,
2013-03-18 14:50:00,66.7,44.7,29.89,ENE,59,4.0,13.0,45,0.00,,---,0.00,VWS V14.01,2013-03-18 19:50:00,
2013-03-18 14:53:00,66.7,44.7,29.89,North,11,6.0,13.0,45,0.00,,---,0.00,VWS V14.01,2013-03-18 19:53:00,
2013-03-18 14:56:00,66.6,44.6,29.89,NNW,329,5.0,13.0,45,0.00,,---,0.00,VWS V14.01,2013-03-18 19:56:00,
2013-03-18 14:59:00,66.4,44.4,29.89,West,280,5.0,13.0,45,0.00,,---,0.00,VWS V14.01,2013-03-18 19:59:00,
2013-03-18 15:03:00,66.3,46.0,29.88,ENE,63,7.0,8.0,48,0.00,,---,0.00,VWS V14.01,2013-03-18 20:03:00,
2013-03-18 15:06:00,66.6,44.6,29.88,NNE,13,6.0,11.0,45,0.00,,---,0.00,VWS V14.01,2013-03-18 20:06:00,
2013-03-18 15:09:00,66.5,45.1,29.88,ENE,58,3.0,11.0,46,0.00,,---,0.00,VWS V14.01,2013-03-18 20:09:00,
2013-03-18 15:12:00,66.6,44.0,29.88,NE,53,5.0,11.0,44,0.00,,---,0.00,VWS V14.01,2013-03-18 20:12:00,
2013-03-18 15:18:00,66.6,44.0,29.88,NNE,24,5.0,12.0,44,0.00,,---,0.00,VWS V14.01,2013-03-18 20:18:00,
2013-03-18 15:21:00,66.8,44.2,29.88,NNW,348,5.0,12.0,44,0.00,,---,0.00,VWS V14.01,2013-03-18 20:21:00,
2013-03-18 15:27:00,67.1,45.1,29.88,NNE,28,1.0,12.0,45,0.00,,---,0.00,VWS V14.01,2013-03-18 20:27:00,
2013-03-18 15:30:00,67.6,46.1,29.88,NNW,346,2.0,12.0,46,0.00,,---,0.00,VWS V14.01,2013-03-18 20:30:00,
2013-03-18 15:36:00,68.3,44.3,29.87,North,360,6.0,9.0,42,0.00,,---,0.00,VWS V14.01,2013-03-18 20:36:00,
2013-03-18 15:39:00,68.5,44.5,29.87,NNE,13,7.0,11.0,42,0.00,,---,0.00,VWS V14.01,2013-03-18 20:39:00,
2013-03-18 15:42:00,68.4,44.4,29.87,North,360,5.0,11.0,42,0.00,,---,0.00,VWS V14.01,2013-03-18 20:42:00,
2013-03-18 15:45:00,68.2,44.9,29.87,ENE,68,4.0,11.0,43,0.00,,---,0.00,VWS V14.01,2013-03-18 20:45:00,
2013-03-18 15:48:00,67.9,44.6,29.87,NNE,17,8.0,11.0,43,0.00,,---,0.00,VWS V14.01,2013-03-18 20:48:00,
2013-03-18 15:54:00,69.0,44.3,29.87,NNW,338,5.0,11.0,41,0.00,,---,0.00,VWS V14.01,2013-03-18 20:54:00,
2013-03-18 16:00:00,69.0,45.0,29.87,NE,42,7.0,11.0,42,0.00,,---,0.00,VWS V14.01,2013-03-18 21:00:00,
2013-03-18 16:06:00,67.9,43.4,29.87,NE,46,5.0,11.0,41,0.00,,---,0.00,VWS V14.01,2013-03-18 21:06:00,
2013-03-18 16:12:00,68.1,44.2,29.87,NNE,15,8.0,11.0,42,0.00,,---,0.00,VWS V14.01,2013-03-18 21:12:00,
2013-03-18 16:15:00,68.2,44.3,29.87,North,11,6.0,11.0,42,0.00,,---,0.00,VWS V14.01,2013-03-18 21:15:00,
2013-03-18 16:21:00,68.5,43.9,29.88,North,5,6.0,11.0,41,0.00,,---,0.00,VWS V14.01,2013-03-18 21:21:00,
2013-03-18 16:24:00,68.2,44.3,29.88,NNE,28,8.0,11.0,42,0.00,,---,0.00,VWS V14.01,2013-03-18 21:24:00,
2013-03-18 16:30:00,68.3,44.3,29.87,North,11,4.0,11.0,42,0.00,,---,0.00,VWS V14.01,2013-03-18 21:30:00,
2013-03-18 16:33:00,68.4,43.2,29.87,North,5,6.0,10.0,40,0.00,,---,0.00,VWS V14.01,2013-03-18 21:33:00,
2013-03-18 16:39:00,68.0,43.5,29.87,North,355,4.0,10.0,41,0.00,,---,0.00,VWS V14.01,2013-03-18 21:39:00,
2013-03-18 16:45:00,67.7,43.8,29.88,NW,315,5.0,10.0,42,0.00,,---,0.00,VWS V14.01,2013-03-18 21:45:00,
2013-03-18 16:48:00,67.9,44.0,29.88,NNW,331,3.0,10.0,42,0.00,,---,0.00,VWS V14.01,2013-03-18 21:48:00,
2013-03-18 16:52:00,68.2,44.3,29.88,NW,323,6.0,10.0,42,0.00,,---,0.00,VWS V14.01,2013-03-18 21:52:00,
2013-03-18 16:58:00,69.0,44.3,29.88,NNW,334,4.0,10.0,41,0.00,,---,0.00,VWS V14.01,2013-03-18 21:58:00,
2013-03-18 17:01:00,69.2,43.9,29.88,NNW,329,6.0,10.0,40,0.00,,---,0.00,VWS V14.01,2013-03-18 22:01:00,
2013-03-18 17:07:00,69.2,43.9,29.88,North,5,8.0,11.0,40,0.00,,---,0.00,VWS V14.01,2013-03-18 22:07:00,
2013-03-18 17:10:00,68.8,42.9,29.88,NNE,15,2.0,11.0,39,0.00,,---,0.00,VWS V14.01,2013-03-18 22:10:00,
2013-03-18 17:13:00,68.6,44.0,29.88,North,360,9.0,11.0,41,0.00,,---,0.00,VWS V14.01,2013-03-18 22:13:00,
2013-03-18 17:19:00,69.2,43.2,29.88,NNE,16,6.0,11.0,39,0.00,,---,0.00,VWS V14.01,2013-03-18 22:19:00,
2013-03-18 17:22:00,68.9,43.0,29.88,NNW,344,4.0,11.0,39,0.00,,---,0.00,VWS V14.01,2013-03-18 22:22:00,
2013-03-18 17:28:00,68.8,44.2,29.88,NW,321,4.0,11.0,41,0.00,,---,0.00,VWS V14.01,2013-03-18 22:28:00,
2013-03-18 17:34:00,68.7,44.1,29.88,NE,34,4.0,9.0,41,0.00,,---,0.00,VWS V14.01,2013-03-18 22:34:00,
2013-03-18 17:37:00,68.5,43.2,29.88,NE,36,6.0,9.0,40,0.00,,---,0.00,VWS V14.01,2013-03-18 22:37:00,
2013-03-18 17:40:00,68.5,43.9,29.88,NW,311,4.0,9.0,41,0.00,,---,0.00,VWS V14.01,2013-03-18 22:40:00,
2013-03-18 17:43:00,68.9,43.0,29.88,NNW,338,4.0,9.0,39,0.00,,---,0.00,VWS V14.01,2013-03-18 22:43:00,
2013-03-18 17:46:00,69.1,43.8,29.88,NNW,341,5.0,9.0,40,0.00,,---,0.00,VWS V14.01,2013-03-18 22:46:00,
2013-03-18 17:52:00,69.2,43.2,29.88,North,355,4.0,9.0,39,0.00,,---,0.00,VWS V14.01,2013-03-18 22:52:00,
2013-03-18 17:55:00,69.3,43.3,29.88,NNW,336,3.0,9.0,39,0.00,,---,0.00,VWS V14.01,2013-03-18 22:55:00,
2013-03-18 17:58:00,69.4,42.7,29.88,North,11,4.0,9.0,38,0.00,,---,0.00,VWS V14.01,2013-03-18 22:58:00,
2013-03-18 18:01:00,69.2,43.2,29.88,North,355,3.0,5.0,39,0.00,,---,0.00,VWS V14.01,2013-03-18 23:01:00,
2013-03-18 18:07:00,69.2,41.8,29.88,NNE,22,2.0,7.0,37,0.00,,---,0.00,VWS V14.01,2013-03-18 23:07:00,
2013-03-18 18:10:00,68.9,42.3,29.88,NE,45,4.0,7.0,38,0.00,,---,0.00,VWS V14.01,2013-03-18 23:10:00,
2013-03-18 18:13:00,68.5,41.9,29.89,North,5,5.0,7.0,38,0.00,,---,0.00,VWS V14.01,2013-03-18 23:13:00,
2013-03-18 18:16:00,68.4,42.5,29.89,NNW,344,3.0,7.0,39,0.00,,---,0.00,VWS V14.01,2013-03-18 23:16:00,
2013-03-18 18:22:00,68.5,42.6,29.90,NNW,348,3.0,8.0,39,0.00,,---,0.00,VWS V14.01,2013-03-18 23:22:00,
2013-03-18 18:25:00,68.5,42.6,29.89,NNW,338,3.0,8.0,39,0.00,,---,0.00,VWS V14.01,2013-03-18 23:25:00,
2013-03-18 18:29:00,68.3,42.4,29.90,NNE,12,4.0,8.0,39,0.00,,---,0.00,VWS V14.01,2013-03-18 23:29:00,
2013-03-18 18:32:00,68.0,42.8,29.90,North,355,4.0,6.0,40,0.00,,---,0.00,VWS V14.01,2013-03-18 23:32:00,
2013-03-18 18:35:00,67.6,43.1,29.90,NNE,19,2.0,7.0,41,0.00,,---,0.00,VWS V14.01,2013-03-18 23:35:00,
2013-03-18 18:38:00,67.2,42.7,29.90,North,5,3.0,7.0,41,0.00,,---,0.00,VWS V14.01,2013-03-18 23:38:00,
2013-03-18 18:41:00,67.2,43.4,29.90,NNW,348,2.0,7.0,42,0.00,,---,0.00,VWS V14.01,2013-03-18 23:41:00,
2013-03-18 18:44:00,67.2,42.7,29.90,NNW,339,5.0,7.0,41,0.00,,---,0.00,VWS V14.01,2013-03-18 23:44:00,
2013-03-18 18:47:00,67.3,42.8,29.90,NNW,345,7.0,8.0,41,0.00,,---,0.00,VWS V14.01,2013-03-18 23:47:00,
2013-03-18 18:50:00,67.2,42.1,29.90,NNW,344,4.0,9.0,40,0.00,,---,0.00,VWS V14.01,2013-03-18 23:50:00,
2013-03-18 18:53:00,67.1,42.6,29.91,North,351,3.0,9.0,41,0.00,,---,0.00,VWS V14.01,2013-03-18 23:53:00,
2013-03-18 18:56:00,66.9,42.5,29.91,North,349,4.0,9.0,41,0.00,,---,0.00,VWS V14.01,2013-03-18 23:56:00,
2013-03-18 18:59:00,66.8,41.7,29.91,NNW,333,3.0,9.0,40,0.00,,---,0.00,VWS V14.01,2013-03-18 23:59:00,
2013-03-18 19:02:00,66.5,42.1,29.91,NNW,332,4.0,6.0,41,0.00,,---,0.00,VWS V14.01,2013-03-19 00:02:00,
2013-03-18 19:05:00,66.2,41.8,29.91,North,355,3.0,7.0,41,0.00,,---,0.00,VWS V14.01,2013-03-19 00:05:00,
2013-03-18 19:08:00,66.0,41.7,29.91,NNW,344,3.0,7.0,41,0.00,,---,0.00,VWS V14.01,2013-03-19 00:08:00,
2013-03-18 19:14:00,65.8,42.1,29.91,North,349,1.0,7.0,42,0.00,,---,0.00,VWS V14.01,2013-03-19 00:14:00,
2013-03-18 19:20:00,65.6,41.9,29.91,NNW,340,2.0,7.0,42,0.00,,---,0.00,VWS V14.01,2013-03-19 00:20:00,
2013-03-18 19:23:00,65.4,41.7,29.91,North,5,3.0,7.0,42,0.00,,---,0.00,VWS V14.01,2013-03-19 00:23:00,
2013-03-18 19:26:00,65.2,41.5,29.92,North,360,2.0,7.0,42,0.00,,---,0.00,VWS V14.01,2013-03-19 00:26:00,
2013-03-18 19:29:00,65.0,42.0,29.91,North,5,4.0,7.0,43,0.00,,---,0.00,VWS V14.01,2013-03-19 00:29:00,
2013-03-18 19:32:00,64.8,41.8,29.92,NNE,14,3.0,5.0,43,0.00,,---,0.00,VWS V14.01,2013-03-19 00:32:00,
2013-03-18 19:35:00,64.6,41.6,29.92,North,355,3.0,5.0,43,0.00,,---,0.00,VWS V14.01,2013-03-19 00:35:00,
2013-03-18 19:38:00,64.5,41.5,29.92,North,5,6.0,6.0,43,0.00,,---,0.00,VWS V14.01,2013-03-19 00:38:00,
2013-03-18 19:41:00,64.3,41.3,29.92,NNE,17,1.0,6.0,43,0.00,,---,0.00,VWS V14.01,2013-03-19 00:41:00,
2013-03-18 19:47:00,63.9,41.6,29.91,NNE,18,2.0,6.0,44,0.00,,---,0.00,VWS V14.01,2013-03-19 00:47:00,
2013-03-18 19:50:00,63.7,41.4,29.92,NNE,18,2.0,6.0,44,0.00,,---,0.00,VWS V14.01,2013-03-19 00:50:00,
2013-03-18 19:53:00,63.5,41.2,29.92,NNE,18,0.0,6.0,44,0.00,,---,0.00,VWS V14.01,2013-03-19 00:53:00,
2013-03-18 19:56:00,63.1,41.4,29.91,NNE,18,0.0,6.0,45,0.00,,---,0.00,VWS V14.01,2013-03-19 00:56:00,
2013-03-18 20:02:00,61.6,41.2,29.91,NNE,18,2.0,2.0,47,0.00,,---,0.00,VWS V14.01,2013-03-19 01:02:00,
2013-03-18 20:05:00,60.8,41.0,29.92,NNE,18,2.0,2.0,48,0.00,,---,0.00,VWS V14.01,2013-03-19 01:05:00,
2013-03-18 20:11:00,60.0,41.3,29.92,NNE,18,0.0,2.0,50,0.00,,---,0.00,VWS V14.01,2013-03-19 01:11:00,
2013-03-18 20:18:00,59.0,40.9,29.92,NNE,18,1.0,2.0,51,0.00,,---,0.00,VWS V14.01,2013-03-19 01:18:00,
2013-03-18 20:21:00,58.6,41.0,29.92,NNE,18,0.0,2.0,52,0.00,,---,0.00,VWS V14.01,2013-03-19 01:21:00,
2013-03-18 20:24:00,58.1,41.1,29.92,NNE,18,2.0,2.0,53,0.00,,---,0.00,VWS V14.01,2013-03-19 01:24:00,
2013-03-18 20:27:00,57.6,41.1,29.92,NNE,18,1.0,2.0,54,0.00,,---,0.00,VWS V14.01,2013-03-19 01:27:00,
2013-03-18 20:30:00,57.1,41.1,29.92,NNE,18,2.0,2.0,55,0.00,,---,0.00,VWS V14.01,2013-03-19 01:30:00,
2013-03-18 20:33:00,56.7,41.2,29.92,NNE,18,2.0,2.0,56,0.00,,---,0.00,VWS V14.01,2013-03-19 01:33:00,
2013-03-18 20:36:00,56.3,41.3,29.92,NNE,29,1.0,3.0,57,0.00,,---,0.00,VWS V14.01,2013-03-19 01:36:00,
2013-03-18 20:39:00,56.0,41.0,29.92,NE,39,2.0,3.0,57,0.00,,---,0.00,VWS V14.01,2013-03-19 01:39:00,
2013-03-18 20:42:00,56.0,41.0,29.92,NE,39,2.0,3.0,57,0.00,,---,0.00,VWS V14.01,2013-03-19 01:42:00,
2013-03-18 20:45:00,56.3,41.3,29.92,NE,39,1.0,3.0,57,0.00,,---,0.00,VWS V14.01,2013-03-19 01:45:00,
2013-03-18 20:48:00,56.7,41.2,29.92,NE,39,1.0,3.0,56,0.00,,---,0.00,VWS V14.01,2013-03-19 01:48:00,
2013-03-18 20:51:00,56.9,41.4,29.92,NE,39,0.0,3.0,56,0.00,,---,0.00,VWS V14.01,2013-03-19 01:51:00,
2013-03-18 20:54:00,57.0,41.0,29.92,NE,39,0.0,3.0,55,0.00,,---,0.00,VWS V14.01,2013-03-19 01:54:00,
2013-03-18 20:57:00,56.9,40.9,29.92,NE,39,0.0,3.0,55,0.00,,---,0.00,VWS V14.01,2013-03-19 01:57:00,
2013-03-18 21:03:00,56.8,41.3,29.92,NE,39,0.0,0.0,56,0.00,,---,0.00,VWS V14.01,2013-03-19 02:03:00,
2013-03-18 21:06:00,56.7,41.2,29.92,NE,39,0.0,1.0,56,0.00,,---,0.00,VWS V14.01,2013-03-19 02:06:00,
2013-03-18 21:09:00,56.7,41.7,29.92,NE,39,0.0,1.0,57,0.00,,---,0.00,VWS V14.01,2013-03-19 02:09:00,
2013-03-18 21:12:00,56.6,41.1,29.92,NE,39,0.0,1.0,56,0.00,,---,0.00,VWS V14.01,2013-03-19 02:12:00,
2013-03-18 21:15:00,56.4,41.4,29.92,NE,39,1.0,1.0,57,0.00,,---,0.00,VWS V14.01,2013-03-19 02:15:00,
2013-03-18 21:18:00,56.0,41.0,29.92,NE,39,0.0,1.0,57,0.00,,---,0.00,VWS V14.01,2013-03-19 02:18:00,
2013-03-18 21:21:00,55.7,40.7,29.92,NE,39,1.0,1.0,57,0.00,,---,0.00,VWS V14.01,2013-03-19 02:21:00,
2013-03-18 21:24:00,55.4,40.4,29.92,NE,39,1.0,2.0,57,0.00,,---,0.00,VWS V14.01,2013-03-19 02:24:00,
2013-03-18 21:27:00,55.2,40.7,29.92,NE,39,0.0,2.0,58,0.00,,---,0.00,VWS V14.01,2013-03-19 02:27:00,
2013-03-18 21:30:00,55.0,41.0,29.93,NE,39,0.0,2.0,59,0.00,,---,0.00,VWS V14.01,2013-03-19 02:30:00,
2013-03-18 21:33:00,54.8,40.8,29.93,NE,39,1.0,1.0,59,0.00,,---,0.00,VWS V14.01,2013-03-19 02:33:00,
2013-03-18 21:36:00,54.5,40.5,29.93,NE,39,1.0,2.0,59,0.00,,---,0.00,VWS V14.01,2013-03-19 02:36:00,
2013-03-18 21:42:00,53.7,40.6,29.93,NE,39,1.0,2.0,61,0.00,,---,0.00,VWS V14.01,2013-03-19 02:42:00,
2013-03-18 21:46:00,53.2,40.1,29.93,NE,39,1.0,2.0,61,0.00,,---,0.00,VWS V14.01,2013-03-19 02:46:00,
2013-03-18 21:52:00,52.5,39.9,29.94,NE,39,2.0,3.0,62,0.00,,---,0.00,VWS V14.01,2013-03-19 02:52:00,
2013-03-18 21:55:00,52.3,40.1,29.94,NE,39,0.0,3.0,63,0.00,,---,0.00,VWS V14.01,2013-03-19 02:55:00,
2013-03-18 21:58:00,51.9,40.1,29.94,NE,39,0.0,3.0,64,0.00,,---,0.00,VWS V14.01,2013-03-19 02:58:00,
2013-03-18 22:04:00,51.4,39.7,29.94,NE,39,2.0,2.0,64,0.00,,---,0.00,VWS V14.01,2013-03-19 03:04:00,
2013-03-18 22:07:00,51.2,39.8,29.94,NE,39,1.0,2.0,65,0.00,,---,0.00,VWS V14.01,2013-03-19 03:07:00,
2013-03-18 22:10:00,51.0,39.7,29.94,NE,39,2.0,2.0,65,0.00,,---,0.00,VWS V14.01,2013-03-19 03:10:00,
2013-03-18 22:13:00,50.8,39.5,29.94,NE,39,1.0,2.0,65,0.00,,---,0.00,VWS V14.01,2013-03-19 03:13:00,
2013-03-18 22:19:00,50.2,39.3,29.94,NE,39,0.0,2.0,66,0.00,,---,0.00,VWS V14.01,2013-03-19 03:19:00,
2013-03-18 22:22:00,50.1,39.6,29.94,NE,39,1.0,2.0,67,0.00,,---,0.00,VWS V14.01,2013-03-19 03:22:00,
2013-03-18 22:25:00,50.3,39.8,29.94,NE,39,1.0,2.0,67,0.00,,---,0.00,VWS V14.01,2013-03-19 03:25:00,
2013-03-18 22:28:00,50.3,39.4,29.94,NE,39,0.0,2.0,66,0.00,,---,0.00,VWS V14.01,2013-03-19 03:28:00,
2013-03-18 22:31:00,50.4,39.5,29.94,NE,39,0.0,0.0,66,0.00,,---,0.00,VWS V14.01,2013-03-19 03:31:00,
2013-03-18 22:34:00,50.5,39.2,29.94,NE,39,0.0,0.0,65,0.00,,---,0.00,VWS V14.01,2013-03-19 03:34:00,
2013-03-18 22:37:00,50.5,39.2,29.94,NE,39,0.0,0.0,65,0.00,,---,0.00,VWS V14.01,2013-03-19 03:37:00,
2013-03-18 22:40:00,50.5,39.2,29.94,NE,39,0.0,0.0,65,0.00,,---,0.00,VWS V14.01,2013-03-19 03:40:00,
2013-03-18 22:43:00,50.4,39.1,29.94,NE,39,0.0,0.0,65,0.00,,---,0.00,VWS V14.01,2013-03-19 03:43:00,
2013-03-18 22:49:00,49.8,38.5,29.94,NE,39,0.0,0.0,65,0.00,,---,0.00,VWS V14.01,2013-03-19 03:49:00,
2013-03-18 22:56:00,48.8,38.3,29.94,NE,39,0.0,0.0,67,0.00,,---,0.00,VWS V14.01,2013-03-19 03:56:00,
2013-03-18 23:01:00,48.2,38.5,29.94,NE,39,0.0,0.0,69,0.00,,---,0.00,VWS V14.01,2013-03-19 04:01:00,
2013-03-18 23:02:00,48.1,38.4,29.94,NE,39,0.0,0.0,69,0.00,,---,0.00,VWS V14.01,2013-03-19 04:02:00,
2013-03-18 23:05:00,47.9,38.2,29.94,NE,39,0.0,0.0,69,0.00,,---,0.00,VWS V14.01,2013-03-19 04:05:00,
2013-03-18 23:08:00,47.8,38.5,29.93,NE,39,0.0,0.0,70,0.00,,---,0.00,VWS V14.01,2013-03-19 04:08:00,
2013-03-18 23:14:00,47.8,38.5,29.93,NE,39,0.0,0.0,70,0.00,,---,0.00,VWS V14.01,2013-03-19 04:14:00,
2013-03-18 23:20:00,46.9,38.4,29.95,WNW,296,0.0,3.0,72,0.00,,---,0.00,VWS V14.01,2013-03-19 04:20:00,
2013-03-18 23:23:00,46.5,38.0,29.95,WNW,296,0.0,3.0,72,0.00,,---,0.00,VWS V14.01,2013-03-19 04:23:00,
2013-03-18 23:29:00,46.1,38.3,29.94,SSW,209,1.0,3.0,74,0.00,,---,0.00,VWS V14.01,2013-03-19 04:29:00,
2013-03-18 23:35:00,46.8,38.3,29.95,SSW,209,0.0,1.0,72,0.00,,---,0.00,VWS V14.01,2013-03-19 04:35:00,
2013-03-18 23:38:00,46.7,37.5,29.94,SSW,209,0.0,1.0,70,0.00,,---,0.00,VWS V14.01,2013-03-19 04:38:00,
2013-03-18 23:44:00,46.4,37.9,29.94,SSW,209,0.0,1.0,72,0.00,,---,0.00,VWS V14.01,2013-03-19 04:44:00,
2013-03-18 23:50:00,46.0,37.5,29.94,SSW,209,0.0,1.0,72,0.00,,---,0.00,VWS V14.01,2013-03-19 04:50:00,
2013-03-18 23:53:00,45.8,37.3,29.93,SSW,209,0.0,1.0,72,0.00,,---,0.00,VWS V14.01,2013-03-19 04:53:00,
2013-03-18 23:56:00,45.5,37.4,29.94,SSW,209,0.0,1.0,73,0.00,,---,0.00,VWS V14.01,2013-03-19 04:56:00,
2013-03-18 23:59:00,45.2,36.7,29.94,SSW,209,0.0,1.0,72,0.00,,---,0.00,VWS V14.01,2013-03-19 04:59:00,